Time;durP1;ratioP1;P1;durP2;ratioP2;P2;SDS_P1;SDS_P2;PMS_P1;PMS_P2;Temp;Humidity;BMP_temperature;BMP_pressure;BME280_temperature;BME280_humidity;BME280_pressure;Samples;Min_cycle;Max_cycle;Signal;HPM_P1;HPM_P2
2022/08/24 00:01:56;;;;;;;49.22;22.73;;;;;;;20.04;100.00;101334.28;5075231;28;20436;-80
2022/08/24 00:04:22;;;;;;;52.60;29.10;;;;;;;20.10;100.00;101334.50;5059983;28;20443;-81
2022/08/24 00:06:51;;;;;;;65.65;29.25;;;;;;;20.05;100.00;101342.47;5063266;28;20024;-80
2022/08/24 00:09:19;;;;;;;53.38;25.60;;;;;;;20.04;100.00;101343.53;5070617;28;20051;-80
2022/08/24 00:11:48;;;;;;;59.45;28.15;;;;;;;19.97;100.00;101336.88;5046414;28;20534;-79
2022/08/24 00:14:15;;;;;;;65.65;34.15;;;;;;;20.11;100.00;101349.25;5056636;28;20079;-79
2022/08/24 00:16:41;;;;;;;73.88;39.58;;;;;;;20.11;100.00;101354.81;5041191;28;20094;-80
2022/08/24 00:19:10;;;;;;;82.30;42.05;;;;;;;20.04;100.00;101349.09;5072596;28;20033;-80
2022/08/24 00:21:38;;;;;;;80.10;39.42;;;;;;;20.18;100.00;101350.31;5070573;28;20515;-81
2022/08/24 00:24:06;;;;;;;84.10;40.92;;;;;;;20.19;100.00;101350.13;5062022;28;20028;-81
2022/08/24 00:26:31;;;;;;;84.90;43.90;;;;;;;20.12;100.00;101357.44;5072421;28;20025;-81
2022/08/24 00:29:01;;;;;;;81.88;43.30;;;;;;;20.18;100.00;101348.41;5050643;28;20033;-80
2022/08/24 00:31:27;;;;;;;86.88;44.95;;;;;;;20.30;100.00;101345.25;5075672;28;20115;-80
2022/08/24 00:33:55;;;;;;;88.22;44.65;;;;;;;20.18;100.00;101353.09;5080577;28;20056;-79
2022/08/24 00:36:23;;;;;;;85.13;44.05;;;;;;;20.14;100.00;101360.03;5069861;28;20033;-81
2022/08/24 00:38:49;;;;;;;87.75;45.58;;;;;;;20.11;100.00;101352.91;5037770;28;20044;-81
2022/08/24 00:41:17;;;;;;;92.82;46.95;;;;;;;20.11;100.00;101357.59;5068288;28;20021;-80
2022/08/24 00:44:01;;;;;;;87.57;45.35;;;;;;;20.16;100.00;101355.16;5067217;28;20041;-80
2022/08/24 00:46:49;;;;;;;90.00;45.80;;;;;;;19.98;100.00;101353.41;5064253;28;20357;-80
2022/08/24 00:49:24;;;;;;;86.65;45.50;;;;;;;19.99;100.00;101346.81;5075485;28;20104;-81
2022/08/24 00:51:56;;;;;;;87.38;44.35;;;;;;;20.05;100.00;101361.06;5074877;28;20040;-81
2022/08/24 00:54:27;;;;;;;102.88;50.95;;;;;;;19.91;100.00;101355.13;5083380;28;20036;-81
2022/08/24 00:56:58;;;;;;;91.38;44.63;;;;;;;20.10;100.00;101359.53;5053231;28;20029;-82
2022/08/24 00:59:31;;;;;;;88.25;44.13;;;;;;;20.11;100.00;101357.59;5071536;28;20036;-82
2022/08/24 01:02:09;;;;;;;89.43;45.58;;;;;;;20.08;100.00;101361.59;5082983;28;20416;-81
2022/08/24 01:04:42;;;;;;;92.47;46.55;;;;;;;19.95;100.00;101352.88;5068947;28;20053;-81
2022/08/24 01:07:11;;;;;;;85.03;45.92;;;;;;;19.91;100.00;101357.91;5072030;28;20047;-82
2022/08/24 01:09:36;;;;;;;88.32;46.70;;;;;;;19.93;100.00;101360.53;5067936;28;20040;-81
2022/08/24 01:12:08;;;;;;;93.07;46.85;;;;;;;19.82;100.00;101358.94;5048316;28;20033;-81
2022/08/24 01:14:38;;;;;;;110.90;50.60;;;;;;;19.64;100.00;101359.91;5047093;28;20039;-81
2022/08/24 01:19:57;;;;;;;103.57;52.35;;;;;;;19.56;100.00;101364.53;5063495;28;20498;-79
2022/08/24 01:22:22;;;;;;;118.95;54.15;;;;;;;19.55;100.00;101363.69;5059817;28;20118;-79
2022/08/24 01:24:49;;;;;;;110.97;55.20;;;;;;;19.54;100.00;101350.81;5051795;28;20083;-79
2022/08/24 01:27:15;;;;;;;112.95;55.58;;;;;;;19.51;100.00;101356.72;5068691;28;20476;-80
2022/08/24 01:29:45;;;;;;;139.77;60.47;;;;;;;19.50;100.00;101368.03;5075867;28;20040;-79
2022/08/24 01:32:12;;;;;;;119.00;58.58;;;;;;;19.46;100.00;101359.13;5078885;28;20056;-80
2022/08/24 01:34:38;;;;;;;126.43;62.47;;;;;;;19.42;100.00;101357.75;5071992;28;20032;-81
2022/08/24 01:37:08;;;;;;;149.45;67.05;;;;;;;19.26;100.00;101359.38;5056093;28;20036;-80
2022/08/24 01:39:44;;;;;;;147.73;69.60;;;;;;;19.38;100.00;101359.09;5060634;28;20039;-80
2022/08/24 01:42:13;;;;;;;147.15;68.00;;;;;;;19.35;100.00;101362.19;5074276;28;20410;-79
2022/08/24 01:44:41;;;;;;;145.95;66.40;;;;;;;19.36;100.00;101370.38;5077293;28;20403;-80
2022/08/24 01:47:10;;;;;;;148.32;68.38;;;;;;;19.36;100.00;101364.81;5066832;28;20054;-81
2022/08/24 01:49:40;;;;;;;146.43;69.55;;;;;;;19.27;100.00;101360.28;5037774;28;20032;-80
2022/08/24 01:52:09;;;;;;;149.07;72.22;;;;;;;19.32;100.00;101359.78;5061989;28;20035;-81
2022/08/24 01:54:35;;;;;;;170.38;76.18;;;;;;;19.22;100.00;101363.53;5056569;28;20024;-80
2022/08/24 01:57:02;;;;;;;161.73;73.95;;;;;;;19.28;100.00;101370.31;5048957;28;20036;-82
2022/08/24 01:59:28;;;;;;;171.40;78.72;;;;;;;19.24;100.00;101368.94;5081264;28;20082;-80
2022/08/24 02:02:05;;;;;;;166.10;79.00;;;;;;;19.27;100.00;101372.25;5080633;28;20032;-81
2022/08/24 02:04:34;;;;;;;163.77;76.25;;;;;;;19.17;100.00;101377.06;5071469;28;20096;-81
2022/08/24 02:07:02;;;;;;;159.40;74.40;;;;;;;19.28;100.00;101365.66;5096066;28;20029;-81
2022/08/24 02:09:31;;;;;;;163.50;76.22;;;;;;;19.37;100.00;101371.25;5038318;28;20028;-80
2022/08/24 02:12:03;;;;;;;152.18;73.28;;;;;;;19.41;100.00;101372.66;5046129;28;20029;-80
2022/08/24 02:14:29;;;;;;;154.10;73.45;;;;;;;19.44;100.00;101366.75;5060430;28;20103;-80
2022/08/24 02:16:58;;;;;;;166.38;76.43;;;;;;;19.34;100.00;101364.13;5079274;28;20041;-80
2022/08/24 02:19:27;;;;;;;157.82;77.65;;;;;;;19.32;100.00;101377.31;5060134;28;20032;-80
2022/08/24 02:21:59;;;;;;;166.15;79.15;;;;;;;19.21;100.00;101366.50;5063243;28;20048;-80
2022/08/24 02:24:26;;;;;;;162.95;76.78;;;;;;;19.13;100.00;101364.53;5066921;28;20123;-81
2022/08/24 02:26:54;;;;;;;160.30;77.80;;;;;;;19.10;100.00;101370.41;5046663;28;20432;-80
2022/08/24 02:29:24;;;;;;;160.65;75.63;;;;;;;19.06;100.00;101366.25;5075328;28;20383;-79
2022/08/24 02:31:53;;;;;;;138.52;70.63;;;;;;;19.02;100.00;101364.81;5065879;28;20044;-80
2022/08/24 02:34:20;;;;;;;152.63;74.88;;;;;;;18.79;100.00;101367.22;5073900;28;20029;-81
2022/08/24 02:36:52;;;;;;;169.30;77.70;;;;;;;18.63;100.00;101362.47;5045052;28;20037;-80
2022/08/24 02:39:20;;;;;;;154.45;75.32;;;;;;;18.66;100.00;101362.09;5051000;28;20055;-80
2022/08/24 02:41:46;;;;;;;158.15;74.43;;;;;;;18.85;100.00;101363.84;5029405;28;20127;-81
2022/08/24 02:44:12;;;;;;;167.88;76.72;;;;;;;18.85;100.00;101358.31;5068545;28;20029;-81
2022/08/24 02:46:38;;;;;;;165.68;80.32;;;;;;;18.70;100.00;101360.78;5039418;28;20036;-79
2022/08/24 02:49:04;;;;;;;169.63;82.28;;;;;;;18.67;100.00;101364.72;5074200;28;20056;-79
2022/08/24 02:51:34;;;;;;;173.50;84.68;;;;;;;18.64;100.00;101375.28;5043431;28;20033;-80
2022/08/24 02:54:01;;;;;;;169.80;79.13;;;;;;;18.64;100.00;101366.97;5066329;28;20079;-81
2022/08/24 02:56:30;;;;;;;159.20;75.72;;;;;;;18.65;100.00;101371.47;5062252;28;20021;-81
2022/08/24 02:58:59;;;;;;;165.85;80.03;;;;;;;18.58;100.00;101367.59;5064333;28;20020;-81
2022/08/24 03:01:26;;;;;;;175.60;80.10;;;;;;;18.48;100.00;101376.00;5067454;28;20435;-80
2022/08/24 03:03:52;;;;;;;155.75;78.32;;;;;;;18.48;100.00;101374.13;5072164;28;20484;-80
2022/08/24 03:06:20;;;;;;;160.80;74.20;;;;;;;18.57;100.00;101374.19;5065347;28;20040;-80
2022/08/24 03:08:47;;;;;;;155.32;74.70;;;;;;;18.53;100.00;101371.75;5065580;28;20496;-81
2022/08/24 03:11:13;;;;;;;145.85;71.60;;;;;;;18.57;100.00;101377.84;5060488;28;20029;-80
2022/08/24 03:13:40;;;;;;;153.15;71.97;;;;;;;18.62;100.00;101380.13;5060149;28;20129;-79
2022/08/24 03:16:07;;;;;;;148.25;71.68;;;;;;;18.62;100.00;101377.34;5071987;28;20039;-79
2022/08/24 03:18:33;;;;;;;152.55;76.95;;;;;;;18.41;100.00;101374.94;5064286;28;20041;-78
2022/08/24 03:21:01;;;;;;;156.88;76.40;;;;;;;18.40;100.00;101376.84;5058412;28;20051;-79
2022/08/24 03:23:28;;;;;;;153.02;69.88;;;;;;;18.65;100.00;101371.47;5041088;28;20095;-78
2022/08/24 03:25:58;;;;;;;150.55;71.15;;;;;;;18.69;100.00;101371.00;5069361;28;20033;-79
2022/08/24 03:28:25;;;;;;;162.73;74.10;;;;;;;18.69;100.00;101372.88;5047242;28;20043;-79
2022/08/24 03:30:55;;;;;;;153.13;74.40;;;;;;;18.53;100.00;101368.97;5068449;28;20040;-80
2022/08/24 03:33:21;;;;;;;154.20;76.20;;;;;;;18.48;100.00;101371.34;5052858;28;20512;-80
2022/08/24 03:35:47;;;;;;;159.45;77.30;;;;;;;18.37;100.00;101372.47;5053381;28;20045;-80
2022/08/24 03:38:13;;;;;;;129.77;65.65;;;;;;;18.19;100.00;101368.84;5072879;28;20095;-80
2022/08/24 03:40:40;;;;;;;137.27;69.97;;;;;;;18.11;100.00;101366.84;5063276;28;20032;-81
2022/08/24 03:43:07;;;;;;;135.88;68.13;;;;;;;18.06;100.00;101358.16;5067413;28;20124;-79
2022/08/24 03:45:33;;;;;;;135.50;71.28;;;;;;;18.02;100.00;101362.28;5073212;28;20082;-81
2022/08/24 03:47:59;;;;;;;146.60;69.22;;;;;;;18.08;100.00;101361.63;5072194;28;20025;-80
2022/08/24 03:50:26;;;;;;;137.77;70.10;;;;;;;18.24;100.00;101354.50;5059660;28;20052;-81
2022/08/24 03:52:57;;;;;;;151.77;69.88;;;;;;;18.27;100.00;101356.97;5059762;28;20599;-79
2022/08/24 03:55:24;;;;;;;138.18;67.53;;;;;;;18.26;100.00;101349.66;5037231;28;20033;-81
2022/08/24 03:57:51;;;;;;;139.07;69.57;;;;;;;18.15;100.00;101350.78;5061197;28;20040;-80
2022/08/24 04:00:19;;;;;;;147.80;70.43;;;;;;;17.94;100.00;101357.53;5064719;28;20039;-80
2022/08/24 04:02:46;;;;;;;117.43;59.70;;;;;;;18.01;100.00;101363.31;5068373;28;20392;-80
2022/08/24 04:05:13;;;;;;;128.82;64.00;;;;;;;17.97;100.00;101353.53;5038105;28;20017;-81
2022/08/24 04:07:41;;;;;;;117.28;59.88;;;;;;;17.83;100.00;101364.13;5064036;28;20509;-79
2022/08/24 04:10:10;;;;;;;126.10;61.72;;;;;;;17.76;100.00;101353.84;5076356;28;20040;-81
2022/08/24 04:12:37;;;;;;;134.32;67.28;;;;;;;17.88;100.00;101368.38;5056853;28;20132;-81
2022/08/24 04:15:03;;;;;;;142.85;68.38;;;;;;;17.83;100.00;101361.34;5056016;28;20096;-79
2022/08/24 04:17:31;;;;;;;147.85;69.90;;;;;;;17.72;100.00;101364.34;5077824;28;20063;-81
2022/08/24 04:19:57;;;;;;;138.77;67.80;;;;;;;17.83;100.00;101366.88;5058987;28;20029;-80
2022/08/24 04:22:26;;;;;;;130.75;63.72;;;;;;;17.89;100.00;101373.75;5092640;28;20032;-80
2022/08/24 04:24:52;;;;;;;143.02;68.70;;;;;;;17.90;100.00;101381.00;5070239;28;20025;-81
2022/08/24 04:27:18;;;;;;;132.35;67.78;;;;;;;17.79;100.00;101376.56;5067072;28;20450;-79
2022/08/24 04:29:48;;;;;;;134.32;69.07;;;;;;;17.60;100.00;101380.31;5045333;28;20481;-79
2022/08/24 04:32:14;;;;;;;122.32;64.15;;;;;;;17.59;100.00;101383.22;5040682;28;20052;-79
2022/08/24 04:34:42;;;;;;;104.22;58.95;;;;;;;17.51;100.00;101385.88;5055923;28;20404;-77
2022/08/24 04:37:11;;;;;;;95.05;56.10;;;;;;;17.43;100.00;101387.53;5041770;28;20087;-77
2022/08/24 04:39:36;;;;;;;112.53;62.75;;;;;;;17.46;100.00;101386.34;5063969;28;20430;-78
2022/08/24 04:42:03;;;;;;;128.45;70.10;;;;;;;17.34;100.00;101384.81;5057758;28;20040;-79
2022/08/24 04:44:30;;;;;;;127.45;68.75;;;;;;;17.30;100.00;101389.78;5068528;28;20098;-78
2022/08/24 04:46:58;;;;;;;143.30;73.97;;;;;;;17.40;100.00;101398.06;5058540;28;20033;-78
2022/08/24 04:49:24;;;;;;;143.15;68.95;;;;;;;17.48;100.00;101400.03;5063260;28;20047;-78
2022/08/24 04:51:50;;;;;;;130.15;68.25;;;;;;;17.45;100.00;101396.56;5058296;28;20040;-79
2022/08/24 04:54:16;;;;;;;145.48;69.93;;;;;;;17.52;100.00;101393.19;5059928;28;20117;-80
2022/08/24 04:56:42;;;;;;;130.02;68.97;;;;;;;17.60;100.00;101393.28;5077481;28;20028;-79
2022/08/24 04:59:09;;;;;;;130.57;66.75;;;;;;;17.68;100.00;101403.59;5029238;28;20105;-79
2022/08/24 05:01:35;;;;;;;122.68;64.60;;;;;;;17.76;100.00;101404.56;5076009;28;20028;-78
2022/08/24 05:04:02;;;;;;;122.88;64.05;;;;;;;17.69;100.00;101400.66;5078552;28;20059;-81
2022/08/24 05:06:31;;;;;;;132.13;67.25;;;;;;;17.66;100.00;101402.84;5050381;28;20112;-79
2022/08/24 05:08:57;;;;;;;121.38;67.07;;;;;;;17.68;100.00;101411.91;5042529;28;20054;-80
2022/08/24 05:11:25;;;;;;;122.72;67.15;;;;;;;17.59;100.00;101411.81;5069452;28;20021;-79
2022/08/24 05:13:53;;;;;;;109.68;59.60;;;;;;;17.60;100.00;101412.66;5059525;28;20041;-81
2022/08/24 05:16:23;;;;;;;112.80;61.22;;;;;;;17.51;100.00;101416.34;5073147;28;20033;-80
2022/08/24 05:18:53;;;;;;;115.63;63.67;;;;;;;17.30;100.00;101425.78;5036883;28;20032;-80
2022/08/24 05:21:21;;;;;;;110.22;61.45;;;;;;;17.32;100.00;101409.03;5078017;28;20040;-81
2022/08/24 05:23:49;;;;;;;92.05;54.55;;;;;;;17.38;100.00;101414.81;5077586;28;20483;-80
2022/08/24 05:26:18;;;;;;;108.07;57.25;;;;;;;17.43;100.00;101411.56;5072728;28;20043;-80
2022/08/24 05:28:44;;;;;;;96.28;56.33;;;;;;;17.52;100.00;101410.66;5047390;28;20144;-78
2022/08/24 05:31:19;;;;;;;96.47;56.78;;;;;;;17.65;100.00;101415.84;5076980;28;20040;-80
2022/08/24 05:33:48;;;;;;;88.85;53.88;;;;;;;17.83;100.00;101418.66;5051569;28;20078;-80
2022/08/24 05:36:31;;;;;;;98.57;57.17;;;;;;;17.74;100.00;101419.56;5079080;28;20029;-81
2022/08/24 05:39:06;;;;;;;92.75;56.05;;;;;;;17.80;100.00;101427.28;5075712;28;20028;-80
2022/08/24 05:41:31;;;;;;;110.68;62.10;;;;;;;17.84;100.00;101425.97;5063991;28;20033;-80
2022/08/24 05:43:59;;;;;;;106.50;60.20;;;;;;;17.68;100.00;101429.38;5066252;28;20029;-80
2022/08/24 05:46:30;;;;;;;107.97;61.88;;;;;;;18.04;100.00;101429.50;5049452;28;20025;-78
2022/08/24 05:48:58;;;;;;;125.80;70.45;;;;;;;17.92;100.00;101430.72;5069212;28;20036;-78
2022/08/24 05:51:25;;;;;;;130.35;69.00;;;;;;;18.13;100.00;101424.91;5055602;28;20029;-78
2022/08/24 05:53:51;;;;;;;147.05;77.20;;;;;;;18.14;100.00;101421.97;5066926;28;20032;-77
2022/08/24 05:56:19;;;;;;;138.35;77.35;;;;;;;18.42;100.00;101427.44;5046343;28;20053;-78
2022/08/24 05:58:45;;;;;;;127.82;72.70;;;;;;;18.55;100.00;101433.47;5065769;28;20114;-77
2022/08/24 06:01:18;;;;;;;129.25;71.00;;;;;;;18.97;100.00;101440.25;5076655;28;20063;-79
2022/08/24 06:03:46;;;;;;;130.65;71.70;;;;;;;19.24;100.00;101444.75;5063958;28;20025;-78
2022/08/24 06:06:16;;;;;;;158.15;84.65;;;;;;;19.23;100.00;101437.50;5067367;28;20032;-79
2022/08/24 06:08:45;;;;;;;170.43;95.22;;;;;;;19.42;100.00;101435.50;5067816;28;20029;-78
2022/08/24 06:11:23;;;;;;;160.30;93.35;;;;;;;19.57;100.00;101447.72;5044456;28;20024;-78
2022/08/24 06:13:51;;;;;;;163.43;95.60;;;;;;;19.88;100.00;101443.56;5070612;28;20460;-78
2022/08/24 06:16:17;;;;;;;176.68;98.72;;;;;;;19.87;100.00;101439.88;5049670;28;20469;-78
2022/08/24 06:18:48;;;;;;;176.63;98.93;;;;;;;;;;5044149;28;20468;-77
2022/08/24 06:21:18;;;;;;;199.13;109.43;;;;;;;20.29;100.00;101444.53;5058380;28;20078;-78
2022/08/24 06:23:44;;;;;;;198.20;104.45;;;;;;;20.63;100.00;101453.75;5060556;28;22012;-77
2022/08/24 06:28:57;;;;;;;184.05;103.10;;;;;;;21.06;100.00;101446.16;5068815;28;20044;-79
2022/08/24 06:31:27;;;;;;;201.65;101.78;;;;;;;21.27;100.00;101449.25;5067320;28;20020;-79
2022/08/24 06:33:53;;;;;;;181.23;95.40;;;;;;;21.48;100.00;101445.06;5068441;28;20051;-78
2022/08/24 06:36:19;;;;;;;185.85;99.60;;;;;;;21.63;100.00;101447.97;5076473;28;20399;-78
2022/08/24 06:38:47;;;;;;;186.25;97.95;;;;;;;21.61;100.00;101447.25;5060833;28;20130;-79
2022/08/24 06:41:13;;;;;;;207.27;106.22;;;;;;;21.48;100.00;101445.91;5056292;28;20029;-78
2022/08/24 06:43:39;;;;;;;209.70;108.38;;;;;;;21.67;100.00;101446.53;5067693;28;20083;-79
2022/08/24 06:46:05;;;;;;;227.88;110.97;;;;;;;21.91;100.00;101450.28;5070108;28;20033;-79
2022/08/24 06:48:35;;;;;;;219.52;109.55;;;;;;;22.20;100.00;101453.25;5066384;28;20040;-79
2022/08/24 06:51:00;;;;;;;178.63;87.80;;;;;;;23.01;100.00;101460.34;5057558;28;20043;-79
2022/08/24 06:53:27;;;;;;;176.63;91.40;;;;;;;22.66;100.00;101448.75;5060506;28;20418;-78
2022/08/24 06:55:57;;;;;;;157.55;84.95;;;;;;;22.59;100.00;101457.03;5059370;28;20468;-79
2022/08/24 06:58:27;;;;;;;161.02;81.95;;;;;;;22.91;100.00;101452.25;5059353;28;20032;-78
2022/08/24 07:00:56;;;;;;;158.70;82.07;;;;;;;23.31;100.00;101464.94;5058876;28;20040;-79
2022/08/24 07:03:23;;;;;;;152.45;83.65;;;;;;;23.17;100.00;101451.84;5061531;28;20040;-78
2022/08/24 07:05:55;;;;;;;143.25;75.68;;;;;;;23.56;100.00;101461.88;5058856;28;20029;-80
2022/08/24 07:08:21;;;;;;;141.27;71.95;;;;;;;24.40;100.00;101461.50;5076566;28;20373;-78
2022/08/24 07:10:51;;;;;;;126.35;65.57;;;;;;;24.19;100.00;101465.13;5049317;28;20033;-79
2022/08/24 07:13:18;;;;;;;149.85;76.75;;;;;;;24.02;100.00;101470.09;5041978;28;20036;-79
2022/08/24 07:15:46;;;;;;;159.52;78.38;;;;;;;24.38;100.00;101462.75;5058218;28;20040;-79
2022/08/24 07:18:14;;;;;;;152.32;74.35;;;;;;;24.50;100.00;101469.56;5073586;28;20036;-79
2022/08/24 07:20:43;;;;;;;141.05;68.22;;;;;;;24.64;100.00;101466.94;5067700;28;20029;-79
2022/08/24 07:23:13;;;;;;;131.82;68.38;;;;;;;24.45;100.00;101474.03;5058254;28;20049;-78
2022/08/24 07:25:44;;;;;;;143.13;72.20;;;;;;;24.86;100.00;101474.28;5057932;28;20107;-79
2022/08/24 07:28:14;;;;;;;147.75;71.55;;;;;;;25.45;100.00;101475.88;5058666;28;20037;-78
2022/08/24 07:30:41;;;;;;;143.63;70.10;;;;;;;25.66;100.00;101476.84;5058077;28;20037;-79
2022/08/24 07:33:07;;;;;;;154.75;75.30;;;;;;;25.86;100.00;101475.03;5058495;28;20051;-79
2022/08/24 07:35:35;;;;;;;154.75;76.90;;;;;;;25.10;100.00;101475.78;5064809;28;20063;-79
2022/08/24 07:38:05;;;;;;;141.48;69.68;;;;;;;26.72;100.00;101472.78;5058147;28;20036;-78
2022/08/24 07:40:31;;;;;;;150.23;72.93;;;;;;;26.83;100.00;101469.34;5055928;28;20108;-79
2022/08/24 07:42:58;;;;;;;150.95;74.15;;;;;;;25.90;100.00;101463.41;5058083;28;20025;-79
2022/08/24 07:45:27;;;;;;;147.55;71.50;;;;;;;26.94;100.00;101471.53;5059501;28;20160;-78
2022/08/24 07:47:55;;;;;;;142.05;71.50;;;;;;;26.78;100.00;101466.31;5074176;28;20029;-77
2022/08/24 07:50:21;;;;;;;146.57;70.90;;;;;;;28.05;100.00;101472.69;5058597;28;20088;-78
2022/08/24 07:52:47;;;;;;;146.57;69.82;;;;;;;27.56;100.00;101473.25;5058784;28;20037;-79
2022/08/24 07:55:14;;;;;;;151.82;69.32;;;;;;;26.80;100.00;101463.31;5059476;28;20029;-77
2022/08/24 07:57:40;;;;;;;137.95;62.17;;;;;;;27.96;100.00;101479.66;5061489;28;20071;-79
2022/08/24 08:00:09;;;;;;;139.00;63.72;;;;;;;27.77;100.00;101477.75;5058219;28;20043;-78
2022/08/24 08:02:40;;;;;;;135.27;59.92;;;;;;;27.78;100.00;101474.72;5058329;28;20392;-78
2022/08/24 08:05:06;;;;;;;112.07;55.40;;;;;;;28.13;100.00;101485.66;5041174;28;20083;-78
2022/08/24 08:07:31;;;;;;;119.50;54.45;;;;;;;28.30;100.00;101485.13;5040839;28;20033;-79
2022/08/24 08:10:01;;;;;;;109.57;52.03;;;;;;;28.08;100.00;101491.09;5040699;28;20029;-77
2022/08/24 08:12:27;;;;;;;103.68;49.10;;;;;;;28.10;100.00;101493.69;5058667;28;20024;-78
2022/08/24 08:14:56;;;;;;;96.78;46.58;;;;;;;29.14;100.00;101492.41;5059282;28;20381;-78
2022/08/24 08:17:22;;;;;;;103.82;48.00;;;;;;;29.37;99.58;101496.59;5072147;28;20039;-79
2022/08/24 08:19:50;;;;;;;117.85;53.05;;;;;;;29.94;95.88;101493.66;5074622;28;20095;-79
2022/08/24 08:25:00;;;;;;;79.88;37.03;;;;;;;29.54;90.56;101501.66;5057439;28;20044;-79
2022/08/24 08:27:26;;;;;;;62.65;30.67;;;;;;;30.44;80.98;101497.41;5075103;28;20392;-78
2022/08/24 08:29:54;;;;;;;68.50;37.63;;;;;;;30.82;78.45;101497.03;5077957;28;20395;-79
2022/08/24 08:32:20;;;;;;;74.70;32.08;;;;;;;30.59;78.41;101493.03;5078681;28;20052;-80
2022/08/24 08:34:46;;;;;;;116.28;46.15;;;;;;;30.15;84.13;101497.94;5077350;28;20032;-79
2022/08/24 08:37:15;;;;;;;108.60;45.58;;;;;;;30.00;85.19;101494.66;5050717;28;20070;-78
2022/08/24 08:39:41;;;;;;;98.88;45.10;;;;;;;30.78;80.31;101490.16;5061171;28;20036;-79
2022/08/24 08:42:15;;;;;;;100.60;38.88;;;;;;;30.22;82.00;101495.03;5079855;28;20088;-80
2022/08/24 08:44:59;;;;;;;86.70;37.50;;;;;;;30.12;81.49;101487.09;5061206;28;20024;-79
2022/08/24 08:48:01;;;;;;;47.50;25.13;;;;;;;30.19;79.34;101499.19;5058603;28;20469;-79
2022/08/24 08:50:32;;;;;;;47.67;20.15;;;;;;;30.53;74.32;101487.47;5059268;28;20053;-78
2022/08/24 08:53:29;;;;;;;45.63;15.52;;;;;;;30.28;75.75;101493.22;5059204;28;20531;-78
2022/08/24 08:56:21;;;;;;;41.50;17.17;;;;;;;30.39;74.78;101495.28;5062807;28;20028;-81
2022/08/24 08:59:02;;;;;;;45.05;19.38;;;;;;;31.62;70.50;101498.56;5065109;28;20024;-79
2022/08/24 09:01:51;;;;;;;54.30;21.27;;;;;;;31.00;72.03;101498.97;5050411;28;20179;-80
2022/08/24 09:04:29;;;;;;;47.10;20.60;;;;;;;31.15;69.79;101499.34;5061682;28;20044;-79
2022/08/24 09:07:10;;;;;;;60.47;22.58;;;;;;;30.96;71.84;101492.09;5061411;28;20591;-79
2022/08/24 09:10:02;;;;;;;81.18;33.78;;;;;;;31.06;72.98;101494.31;5061707;28;20029;-79
2022/08/24 09:12:40;;;;;;;86.60;34.97;;;;;;;31.17;72.55;101499.09;5046538;28;20044;-79
2022/08/24 09:15:16;;;;;;;62.58;31.10;;;;;;;31.48;70.71;101497.94;5061058;28;20035;-79
2022/08/24 09:18:07;;;;;;;53.65;25.40;;;;;;;30.82;71.82;101488.56;5044226;28;20059;-80
2022/08/24 09:21:05;;;;;;;54.90;29.70;;;;;;;31.62;67.38;101500.53;5062078;28;20052;-79
2022/08/24 09:24:02;;;;;;;24.50;10.73;;;;;;;32.00;64.11;101496.31;5061406;28;20064;-79
2022/08/24 09:26:38;;;;;;;14.50;7.32;;;;;;;31.33;64.85;101489.91;5065969;28;20096;-78
2022/08/24 09:29:16;;;;;;;17.38;8.13;;;;;;;31.06;65.75;101491.50;5055046;28;20029;-78
2022/08/24 09:32:05;;;;;;;21.23;10.23;;;;;;;31.61;64.17;101491.16;5061767;28;20495;-79
2022/08/24 09:35:03;;;;;;;21.60;10.00;;;;;;;31.67;63.49;101486.50;5043634;28;20041;-78
2022/08/24 09:38:07;;;;;;;16.73;5.75;;;;;;;32.16;60.85;101495.56;5062089;28;20529;-78
2022/08/24 09:40:38;;;;;;;16.52;4.57;;;;;;;31.73;61.09;101498.78;5059680;28;20480;-77
2022/08/24 09:43:28;;;;;;;10.55;4.50;;;;;;;31.82;61.53;101486.00;5061109;28;20368;-79
2022/08/24 09:45:57;;;;;;;8.45;4.55;;;;;;;31.77;62.67;101491.53;5060204;28;20028;-79
2022/08/24 09:48:38;;;;;;;12.18;4.30;;;;;;;31.33;62.52;101491.88;5060459;28;20056;-79
2022/08/24 09:51:16;;;;;;;16.30;4.00;;;;;;;31.19;62.27;101488.44;5060555;28;20163;-79
2022/08/24 09:53:49;;;;;;;14.00;5.80;;;;;;;31.31;63.23;101492.13;5059680;28;20114;-79
2022/08/24 09:56:25;;;;;;;20.00;9.15;;;;;;;32.05;62.07;101496.41;5062759;28;20036;-78
2022/08/24 09:59:19;;;;;;;21.90;10.60;;;;;;;32.72;59.94;101489.34;5076912;28;20108;-79
2022/08/24 10:02:22;;;;;;;27.42;9.77;;;;;;;32.72;60.07;101487.34;5081958;28;20021;-79
2022/08/24 10:05:01;;;;;;;12.52;5.65;;;;;;;32.54;59.95;101490.38;5081760;28;20541;-78
2022/08/24 10:07:49;;;;;;;13.82;5.80;;;;;;;31.75;62.18;101485.28;5058071;28;20388;-79
2022/08/24 10:10:23;;;;;;;24.90;6.82;;;;;;;31.99;61.06;101480.41;5059081;28;20033;-78
2022/08/24 10:13:03;;;;;;;13.50;5.68;;;;;;;32.47;58.92;101483.97;5061115;28;20037;-79
2022/08/24 10:15:49;;;;;;;15.82;6.25;;;;;;;31.74;61.64;101472.22;5060074;28;20028;-78
2022/08/24 10:18:39;;;;;;;11.90;5.13;;;;;;;31.74;61.29;101475.03;5059733;28;20057;-78
2022/08/24 10:21:25;;;;;;;17.92;4.13;;;;;;;31.49;63.67;101470.47;5060670;28;20252;-78
2022/08/24 10:23:57;;;;;;;12.65;4.63;;;;;;;30.49;66.76;101470.13;5070501;28;20079;-76
2022/08/24 10:26:48;;;;;;;14.65;5.28;;;;;;;30.68;65.50;101464.41;5072092;28;20013;-80
2022/08/24 10:30:02;;;;;;;9.63;4.50;;;;;;;30.96;65.25;101469.47;5041979;28;20063;-78
2022/08/24 10:32:59;;;;;;;12.73;5.60;;;;;;;31.37;64.74;101461.09;5061553;28;20040;-79
2022/08/24 10:35:42;;;;;;;11.63;5.25;;;;;;;31.29;65.01;101456.69;5044896;28;20029;-78
2022/08/24 10:41:47;;;;;;;11.10;3.47;;;;;;;31.80;60.68;101454.22;5063664;28;20041;-79
2022/08/24 10:44:21;;;;;;;11.48;3.53;;;;;;;31.49;61.53;101461.97;5040186;28;20488;-78
2022/08/24 10:46:57;;;;;;;13.00;3.38;;;;;;;30.65;64.27;101445.09;5066140;28;20380;-79
2022/08/24 10:49:59;;;;;;;9.32;3.83;;;;;;;30.11;66.35;101443.03;5062987;28;20044;-79
2022/08/24 10:52:46;;;;;;;7.88;3.17;;;;;;;30.45;65.04;101446.28;5062728;28;20029;-78
2022/08/24 10:55:34;;;;;;;4.88;3.78;;;;;;;30.60;65.45;101451.50;5063319;28;20083;-80
2022/08/24 10:58:45;;;;;;;14.10;3.22;;;;;;;30.11;68.43;101447.81;5062654;28;20048;-79
2022/08/24 11:01:25;;;;;;;8.65;3.65;;;;;;;30.16;66.83;101450.78;5044221;28;20045;-78
2022/08/24 11:03:59;;;;;;;10.07;3.17;;;;;;;30.14;68.10;101444.50;5079123;28;20082;-79
2022/08/24 11:06:35;;;;;;;7.63;3.58;;;;;;;30.34;66.66;101447.06;5072389;28;20029;-79
2022/08/24 11:09:09;;;;;;;23.95;4.10;;;;;;;30.08;67.09;101446.31;5079179;28;20070;-79
2022/08/24 11:11:46;;;;;;;18.90;3.05;;;;;;;30.56;64.67;101447.41;5062711;28;20090;-78
2022/08/24 11:14:14;;;;;;;6.63;2.90;;;;;;;31.20;62.48;101442.03;5059434;28;20060;-78
2022/08/24 11:16:43;;;;;;;8.90;3.03;;;;;;;31.21;61.29;101440.09;5058100;28;20139;-79
2022/08/24 11:19:12;;;;;;;7.93;2.60;;;;;;;31.92;59.52;101438.06;5058223;28;20033;-77
2022/08/24 11:21:52;;;;;;;8.77;3.05;;;;;;;32.18;58.55;101433.81;5077919;28;20036;-78
2022/08/24 11:24:40;;;;;;;9.32;2.70;;;;;;;32.91;55.44;101439.75;5078823;28;20029;-77
2022/08/24 11:27:15;;;;;;;9.68;3.30;;;;;;;32.60;56.21;101438.31;5078022;28;20107;-79
2022/08/24 11:29:53;;;;;;;9.55;3.13;;;;;;;32.12;57.38;101431.97;5073349;28;20041;-78
2022/08/24 11:32:30;;;;;;;11.95;3.03;;;;;;;31.95;58.15;101420.56;5042010;28;20077;-79
2022/08/24 11:35:08;;;;;;;11.25;2.95;;;;;;;31.97;56.92;101426.81;5058792;28;20029;-78